sensor_id;sensor_type;location;lat;lon;timestamp;pressure;altitude;pressure_sealevel;temperature;humidity
18201;BME280;9226;47.858;9.594;2023-05-24T00:01:05;95336.44;;;15.78;69.87
18201;BME280;9226;47.858;9.594;2023-05-24T00:03:32;95329.16;;;15.88;69.14
18201;BME280;9226;47.858;9.594;2023-05-24T00:05:59;95325.94;;;15.84;69.48
18201;BME280;9226;47.858;9.594;2023-05-24T00:08:25;95326.63;;;15.86;69.27
18201;BME280;9226;47.858;9.594;2023-05-24T00:10:51;95317.97;;;15.93;68.80
18201;BME280;9226;47.858;9.594;2023-05-24T00:13:16;95320.91;;;15.81;69.73
18201;BME280;9226;47.858;9.594;2023-05-24T00:15:42;95326.31;;;15.63;69.93
18201;BME280;9226;47.858;9.594;2023-05-24T00:18:07;95320.28;;;15.61;70.18
18201;BME280;9226;47.858;9.594;2023-05-24T00:20:33;95318.81;;;15.67;69.95
18201;BME280;9226;47.858;9.594;2023-05-24T00:22:58;95311.94;;;15.64;69.81
18201;BME280;9226;47.858;9.594;2023-05-24T00:25:23;95314.03;;;15.52;70.58
18201;BME280;9226;47.858;9.594;2023-05-24T00:27:49;95316.56;;;15.54;70.42
18201;BME280;9226;47.858;9.594;2023-05-24T00:30:14;95311.06;;;15.55;70.75
18201;BME280;9226;47.858;9.594;2023-05-24T00:32:40;95309.81;;;15.42;71.28
18201;BME280;9226;47.858;9.594;2023-05-24T00:35:05;95309.16;;;15.48;70.79
18201;BME280;9226;47.858;9.594;2023-05-24T00:37:31;95318.38;;;15.45;70.74
18201;BME280;9226;47.858;9.594;2023-05-24T00:39:56;95310.53;;;15.52;70.52
18201;BME280;9226;47.858;9.594;2023-05-24T00:42:22;95311.22;;;15.54;70.47
18201;BME280;9226;47.858;9.594;2023-05-24T00:44:47;95310.66;;;15.42;71.36
18201;BME280;9226;47.858;9.594;2023-05-24T00:47:13;95306.78;;;15.36;71.72
18201;BME280;9226;47.858;9.594;2023-05-24T00:49:38;95313.53;;;15.49;70.77
18201;BME280;9226;47.858;9.594;2023-05-24T00:52:04;95309.41;;;15.54;70.24
18201;BME280;9226;47.858;9.594;2023-05-24T00:54:30;95313.22;;;15.52;70.40
18201;BME280;9226;47.858;9.594;2023-05-24T00:56:56;95313.22;;;15.52;70.78
18201;BME280;9226;47.858;9.594;2023-05-24T00:59:22;95313.38;;;15.50;70.43
18201;BME280;9226;47.858;9.594;2023-05-24T01:01:48;95305.97;;;15.44;69.97
18201;BME280;9226;47.858;9.594;2023-05-24T01:04:13;95307.41;;;15.30;70.45
18201;BME280;9226;47.858;9.594;2023-05-24T01:09:24;95302.66;;;14.98;70.29
18201;BME280;9226;47.858;9.594;2023-05-24T01:12:27;95314.72;;;15.02;69.93
18201;BME280;9226;47.858;9.594;2023-05-24T01:15:06;95307.50;;;14.94;69.32
18201;BME280;9226;47.858;9.594;2023-05-24T01:20:19;95303.69;;;14.79;69.20
18201;BME280;9226;47.858;9.594;2023-05-24T01:23:06;95309.09;;;14.87;68.81
18201;BME280;9226;47.858;9.594;2023-05-24T01:26:02;95308.81;;;14.72;69.63
18201;BME280;9226;47.858;9.594;2023-05-24T01:28:33;95317.50;;;14.74;69.27
18201;BME280;9226;47.858;9.594;2023-05-24T01:30:59;95309.94;;;14.88;68.90
18201;BME280;9226;47.858;9.594;2023-05-24T01:33:25;95305.44;;;14.88;69.92
18201;BME280;9226;47.858;9.594;2023-05-24T01:35:50;95319.16;;;14.93;70.26
18201;BME280;9226;47.858;9.594;2023-05-24T01:38:16;95314.50;;;14.95;70.36
18201;BME280;9226;47.858;9.594;2023-05-24T01:40:42;95309.16;;;14.95;71.53
18201;BME280;9226;47.858;9.594;2023-05-24T01:43:23;95309.53;;;15.00;71.60
18201;BME280;9226;47.858;9.594;2023-05-24T01:46:14;95314.19;;;14.98;71.64
18201;BME280;9226;47.858;9.594;2023-05-24T01:49:12;95310.13;;;15.12;70.25
18201;BME280;9226;47.858;9.594;2023-05-24T01:51:53;95316.56;;;15.01;70.48
18201;BME280;9226;47.858;9.594;2023-05-24T01:54:20;95321.06;;;14.83;71.09
18201;BME280;9226;47.858;9.594;2023-05-24T01:56:47;95323.53;;;14.94;70.39
18201;BME280;9226;47.858;9.594;2023-05-24T01:59:14;95318.84;;;14.96;70.05
18201;BME280;9226;47.858;9.594;2023-05-24T02:01:40;95318.19;;;14.94;70.31
18201;BME280;9226;47.858;9.594;2023-05-24T02:04:06;95314.13;;;14.90;70.03
18201;BME280;9226;47.858;9.594;2023-05-24T02:06:31;95314.06;;;14.82;70.58
18201;BME280;9226;47.858;9.594;2023-05-24T02:08:56;95312.75;;;14.86;70.03
18201;BME280;9226;47.858;9.594;2023-05-24T02:11:22;95307.41;;;14.86;69.99
18201;BME280;9226;47.858;9.594;2023-05-24T02:13:47;95313.00;;;14.75;70.17
18201;BME280;9226;47.858;9.594;2023-05-24T02:16:13;95310.31;;;14.75;70.63
18201;BME280;9226;47.858;9.594;2023-05-24T02:18:38;95312.63;;;14.70;70.50
18201;BME280;9226;47.858;9.594;2023-05-24T02:21:04;95307.81;;;14.73;70.52
18201;BME280;9226;47.858;9.594;2023-05-24T02:23:30;95307.66;;;14.75;70.00
18201;BME280;9226;47.858;9.594;2023-05-24T02:25:55;95303.69;;;14.79;69.98
18201;BME280;9226;47.858;9.594;2023-05-24T02:28:21;95299.88;;;14.63;70.88
18201;BME280;9226;47.858;9.594;2023-05-24T02:30:46;95294.97;;;14.59;71.05
18201;BME280;9226;47.858;9.594;2023-05-24T02:33:12;95303.38;;;14.64;70.49
18201;BME280;9226;47.858;9.594;2023-05-24T02:35:38;95293.44;;;14.56;70.95
18201;BME280;9226;47.858;9.594;2023-05-24T02:38:05;95298.59;;;14.68;70.33
18201;BME280;9226;47.858;9.594;2023-05-24T02:40:31;95299.34;;;14.60;70.67
18201;BME280;9226;47.858;9.594;2023-05-24T02:42:56;95295.94;;;14.68;69.86
18201;BME280;9226;47.858;9.594;2023-05-24T02:45:22;95299.72;;;14.47;70.85
18201;BME280;9226;47.858;9.594;2023-05-24T02:47:47;95300.19;;;14.60;69.96
18201;BME280;9226;47.858;9.594;2023-05-24T02:50:13;95306.47;;;14.41;70.19
18201;BME280;9226;47.858;9.594;2023-05-24T02:52:38;95299.84;;;14.27;70.91
18201;BME280;9226;47.858;9.594;2023-05-24T02:55:04;95305.34;;;14.44;70.17
18201;BME280;9226;47.858;9.594;2023-05-24T02:57:30;95293.28;;;14.40;69.88
18201;BME280;9226;47.858;9.594;2023-05-24T02:59:58;95303.28;;;14.38;69.83
18201;BME280;9226;47.858;9.594;2023-05-24T03:02:24;95311.09;;;14.21;70.52
18201;BME280;9226;47.858;9.594;2023-05-24T03:04:49;95307.91;;;14.36;70.18
18201;BME280;9226;47.858;9.594;2023-05-24T03:07:14;95306.41;;;14.33;70.28
18201;BME280;9226;47.858;9.594;2023-05-24T03:09:40;95306.56;;;14.32;70.26
18201;BME280;9226;47.858;9.594;2023-05-24T03:12:05;95299.00;;;14.45;69.72
18201;BME280;9226;47.858;9.594;2023-05-24T03:14:31;95292.19;;;14.33;70.13
18201;BME280;9226;47.858;9.594;2023-05-24T03:16:56;95297.88;;;14.29;70.29
18201;BME280;9226;47.858;9.594;2023-05-24T03:19:22;95297.66;;;14.41;69.68
18201;BME280;9226;47.858;9.594;2023-05-24T03:21:47;95292.59;;;14.38;70.10
18201;BME280;9226;47.858;9.594;2023-05-24T03:24:12;95290.63;;;14.22;70.24
18201;BME280;9226;47.858;9.594;2023-05-24T03:26:41;95288.00;;;14.12;71.09
18201;BME280;9226;47.858;9.594;2023-05-24T03:29:07;95290.13;;;14.08;71.30
18201;BME280;9226;47.858;9.594;2023-05-24T03:31:32;95288.50;;;13.98;70.83
18201;BME280;9226;47.858;9.594;2023-05-24T03:33:57;95290.50;;;13.96;70.83
18201;BME280;9226;47.858;9.594;2023-05-24T03:36:23;95297.22;;;14.00;70.56
18201;BME280;9226;47.858;9.594;2023-05-24T03:38:50;95290.41;;;13.87;70.97
18201;BME280;9226;47.858;9.594;2023-05-24T03:41:15;95299.16;;;13.98;70.24
18201;BME280;9226;47.858;9.594;2023-05-24T03:43:40;95300.19;;;13.97;70.00
18201;BME280;9226;47.858;9.594;2023-05-24T03:46:06;95297.72;;;13.85;70.63
18201;BME280;9226;47.858;9.594;2023-05-24T03:48:31;95295.88;;;13.86;70.69
18201;BME280;9226;47.858;9.594;2023-05-24T03:50:57;95295.22;;;14.02;70.42
18201;BME280;9226;47.858;9.594;2023-05-24T03:53:22;95300.03;;;13.98;70.50
18201;BME280;9226;47.858;9.594;2023-05-24T03:55:48;95305.06;;;14.01;70.65
18201;BME280;9226;47.858;9.594;2023-05-24T03:58:13;95307.59;;;14.03;70.58
18201;BME280;9226;47.858;9.594;2023-05-24T04:00:38;95299.72;;;14.01;70.41
18201;BME280;9226;47.858;9.594;2023-05-24T04:03:04;95303.91;;;14.04;70.26
18201;BME280;9226;47.858;9.594;2023-05-24T04:05:31;95311.75;;;14.05;69.95
18201;BME280;9226;47.858;9.594;2023-05-24T04:07:56;95311.09;;;14.03;69.48
18201;BME280;9226;47.858;9.594;2023-05-24T04:10:22;95306.53;;;13.86;69.96
18201;BME280;9226;47.858;9.594;2023-05-24T04:12:47;95313.22;;;14.00;69.35
18201;BME280;9226;47.858;9.594;2023-05-24T04:15:13;95306.88;;;14.01;69.22
18201;BME280;9226;47.858;9.594;2023-05-24T04:17:42;95315.59;;;14.03;69.05
18201;BME280;9226;47.858;9.594;2023-05-24T04:20:09;95317.66;;;14.09;69.03
18201;BME280;9226;47.858;9.594;2023-05-24T04:22:34;95318.78;;;14.06;69.12
18201;BME280;9226;47.858;9.594;2023-05-24T04:25:03;95316.72;;;14.00;69.54
18201;BME280;9226;47.858;9.594;2023-05-24T04:27:29;95317.09;;;14.05;69.71
18201;BME280;9226;47.858;9.594;2023-05-24T04:29:55;95321.91;;;14.02;69.48
18201;BME280;9226;47.858;9.594;2023-05-24T04:32:21;95314.41;;;13.87;70.25
18201;BME280;9226;47.858;9.594;2023-05-24T04:34:47;95311.81;;;13.96;70.11
18201;BME280;9226;47.858;9.594;2023-05-24T04:37:13;95309.44;;;13.92;71.27
18201;BME280;9226;47.858;9.594;2023-05-24T04:39:41;95313.81;;;13.93;71.62
18201;BME280;9226;47.858;9.594;2023-05-24T04:42:07;95317.16;;;13.96;72.36
18201;BME280;9226;47.858;9.594;2023-05-24T04:44:33;95318.44;;;13.91;72.58
18201;BME280;9226;47.858;9.594;2023-05-24T04:46:58;95319.16;;;13.93;72.23
18201;BME280;9226;47.858;9.594;2023-05-24T04:49:25;95309.66;;;13.81;73.71
18201;BME280;9226;47.858;9.594;2023-05-24T04:51:51;95318.47;;;13.82;73.01
18201;BME280;9226;47.858;9.594;2023-05-24T04:54:16;95316.44;;;13.66;74.58
18201;BME280;9226;47.858;9.594;2023-05-24T04:56:42;95327.06;;;13.48;75.70
18201;BME280;9226;47.858;9.594;2023-05-24T04:59:07;95329.97;;;13.54;75.29
18201;BME280;9226;47.858;9.594;2023-05-24T05:01:34;95316.50;;;13.56;74.77
18201;BME280;9226;47.858;9.594;2023-05-24T05:04:01;95321.28;;;13.52;74.83
18201;BME280;9226;47.858;9.594;2023-05-24T05:06:28;95319.22;;;13.46;74.72
18201;BME280;9226;47.858;9.594;2023-05-24T05:08:53;95333.38;;;13.47;74.82
18201;BME280;9226;47.858;9.594;2023-05-24T05:11:19;95342.78;;;13.41;75.28
18201;BME280;9226;47.858;9.594;2023-05-24T05:13:44;95342.66;;;13.23;76.82
18201;BME280;9226;47.858;9.594;2023-05-24T05:16:10;95345.16;;;13.34;75.38
18201;BME280;9226;47.858;9.594;2023-05-24T05:18:35;95351.75;;;13.30;76.37
18201;BME280;9226;47.858;9.594;2023-05-24T05:21:01;95350.75;;;13.31;76.35
18201;BME280;9226;47.858;9.594;2023-05-24T05:23:28;95355.00;;;13.24;77.26
18201;BME280;9226;47.858;9.594;2023-05-24T05:25:53;95350.13;;;13.10;77.30
18201;BME280;9226;47.858;9.594;2023-05-24T05:28:19;95349.72;;;13.05;76.98
18201;BME280;9226;47.858;9.594;2023-05-24T05:30:45;95353.88;;;13.07;78.70
18201;BME280;9226;47.858;9.594;2023-05-24T05:33:10;95347.75;;;12.97;78.34
18201;BME280;9226;47.858;9.594;2023-05-24T05:35:35;95338.03;;;13.15;77.49
18201;BME280;9226;47.858;9.594;2023-05-24T05:38:01;95335.38;;;13.25;76.58
18201;BME280;9226;47.858;9.594;2023-05-24T05:40:26;95347.84;;;13.25;77.08
18201;BME280;9226;47.858;9.594;2023-05-24T05:42:51;95348.22;;;13.30;76.86
18201;BME280;9226;47.858;9.594;2023-05-24T05:45:17;95351.91;;;13.29;77.30
18201;BME280;9226;47.858;9.594;2023-05-24T05:47:42;95355.97;;;13.23;77.45
18201;BME280;9226;47.858;9.594;2023-05-24T05:50:08;95355.53;;;13.28;77.01
18201;BME280;9226;47.858;9.594;2023-05-24T05:52:33;95361.31;;;13.33;76.77
18201;BME280;9226;47.858;9.594;2023-05-24T05:54:59;95352.59;;;13.31;76.97
18201;BME280;9226;47.858;9.594;2023-05-24T05:57:25;95356.09;;;13.31;76.92
18201;BME280;9226;47.858;9.594;2023-05-24T05:59:51;95358.22;;;13.37;76.60
18201;BME280;9226;47.858;9.594;2023-05-24T06:02:17;95359.06;;;13.38;76.57
18201;BME280;9226;47.858;9.594;2023-05-24T06:04:49;95352.72;;;13.29;77.23
18201;BME280;9226;47.858;9.594;2023-05-24T06:07:15;95351.19;;;13.46;75.79
18201;BME280;9226;47.858;9.594;2023-05-24T06:09:40;95350.34;;;13.36;75.50
18201;BME280;9226;47.858;9.594;2023-05-24T06:12:06;95345.75;;;13.38;76.39
18201;BME280;9226;47.858;9.594;2023-05-24T06:14:31;95343.63;;;13.32;76.42
18201;BME280;9226;47.858;9.594;2023-05-24T06:16:58;95342.91;;;13.30;75.88
18201;BME280;9226;47.858;9.594;2023-05-24T06:19:24;95346.84;;;13.26;75.38
18201;BME280;9226;47.858;9.594;2023-05-24T06:21:49;95348.22;;;13.30;74.58
18201;BME280;9226;47.858;9.594;2023-05-24T06:24:16;95343.75;;;13.30;74.41
18201;BME280;9226;47.858;9.594;2023-05-24T06:26:51;95346.59;;;13.19;74.03
18201;BME280;9226;47.858;9.594;2023-05-24T06:29:17;95348.41;;;13.18;74.27
18201;BME280;9226;47.858;9.594;2023-05-24T06:31:47;95352.50;;;13.13;74.49
18201;BME280;9226;47.858;9.594;2023-05-24T06:34:13;95341.81;;;13.23;74.15
18201;BME280;9226;47.858;9.594;2023-05-24T06:36:42;95338.31;;;13.12;74.26
18201;BME280;9226;47.858;9.594;2023-05-24T06:39:08;95349.25;;;13.09;74.66
18201;BME280;9226;47.858;9.594;2023-05-24T06:41:34;95353.03;;;13.16;74.31
18201;BME280;9226;47.858;9.594;2023-05-24T06:44:00;95358.25;;;13.08;74.31
18201;BME280;9226;47.858;9.594;2023-05-24T06:46:25;95354.28;;;13.12;74.31
18201;BME280;9226;47.858;9.594;2023-05-24T06:48:50;95359.78;;;13.20;73.70
18201;BME280;9226;47.858;9.594;2023-05-24T06:51:16;95368.47;;;13.23;73.63
18201;BME280;9226;47.858;9.594;2023-05-24T06:53:41;95364.22;;;13.30;73.43
18201;BME280;9226;47.858;9.594;2023-05-24T06:56:07;95365.38;;;13.27;72.98
18201;BME280;9226;47.858;9.594;2023-05-24T06:58:33;95365.91;;;13.31;73.05
18201;BME280;9226;47.858;9.594;2023-05-24T07:00:59;95364.69;;;13.25;72.47
18201;BME280;9226;47.858;9.594;2023-05-24T07:03:24;95366.19;;;13.28;72.37
18201;BME280;9226;47.858;9.594;2023-05-24T07:05:50;95368.19;;;13.35;72.50
18201;BME280;9226;47.858;9.594;2023-05-24T07:08:16;95374.34;;;13.36;71.13
18201;BME280;9226;47.858;9.594;2023-05-24T07:10:41;95382.34;;;13.36;71.07
18201;BME280;9226;47.858;9.594;2023-05-24T07:13:07;95384.41;;;13.52;71.40
18201;BME280;9226;47.858;9.594;2023-05-24T07:15:33;95384.28;;;13.44;71.30
18201;BME280;9226;47.858;9.594;2023-05-24T07:17:58;95391.72;;;13.50;71.45
18201;BME280;9226;47.858;9.594;2023-05-24T07:20:24;95384.97;;;13.55;71.58
18201;BME280;9226;47.858;9.594;2023-05-24T07:22:49;95389.69;;;13.71;71.17
18201;BME280;9226;47.858;9.594;2023-05-24T07:25:16;95389.41;;;13.74;70.13
18201;BME280;9226;47.858;9.594;2023-05-24T07:27:41;95393.59;;;13.77;70.07
18201;BME280;9226;47.858;9.594;2023-05-24T07:30:07;95391.59;;;13.89;71.40
18201;BME280;9226;47.858;9.594;2023-05-24T07:32:33;95402.06;;;14.00;71.14
18201;BME280;9226;47.858;9.594;2023-05-24T07:34:58;95397.38;;;14.12;69.42
18201;BME280;9226;47.858;9.594;2023-05-24T07:37:24;95388.78;;;14.18;69.46
18201;BME280;9226;47.858;9.594;2023-05-24T07:39:49;95393.63;;;14.33;68.87
18201;BME280;9226;47.858;9.594;2023-05-24T07:42:16;95391.22;;;14.57;68.44
18201;BME280;9226;47.858;9.594;2023-05-24T07:44:41;95392.06;;;14.68;68.20
18201;BME280;9226;47.858;9.594;2023-05-24T07:47:07;95387.38;;;14.70;67.70
18201;BME280;9226;47.858;9.594;2023-05-24T07:49:32;95381.38;;;14.68;66.76
18201;BME280;9226;47.858;9.594;2023-05-24T07:51:58;95386.41;;;14.71;66.63
18201;BME280;9226;47.858;9.594;2023-05-24T07:54:24;95385.63;;;14.60;65.67
18201;BME280;9226;47.858;9.594;2023-05-24T07:56:50;95379.69;;;14.67;67.27
18201;BME280;9226;47.858;9.594;2023-05-24T07:59:16;95377.91;;;14.75;67.04
18201;BME280;9226;47.858;9.594;2023-05-24T08:01:41;95382.50;;;14.83;67.13
18201;BME280;9226;47.858;9.594;2023-05-24T08:04:08;95384.09;;;14.94;65.99
18201;BME280;9226;47.858;9.594;2023-05-24T08:06:34;95384.47;;;14.99;65.72
18201;BME280;9226;47.858;9.594;2023-05-24T08:09:02;95391.00;;;14.96;65.31
18201;BME280;9226;47.858;9.594;2023-05-24T08:11:29;95395.72;;;15.02;65.58
18201;BME280;9226;47.858;9.594;2023-05-24T08:13:54;95392.66;;;14.97;65.25
18201;BME280;9226;47.858;9.594;2023-05-24T08:16:20;95396.47;;;14.95;65.37
18201;BME280;9226;47.858;9.594;2023-05-24T08:18:45;95393.66;;;14.96;64.80
18201;BME280;9226;47.858;9.594;2023-05-24T08:21:11;95402.06;;;15.01;64.47
18201;BME280;9226;47.858;9.594;2023-05-24T08:23:36;95391.81;;;14.97;64.36
18201;BME280;9226;47.858;9.594;2023-05-24T08:26:01;95397.06;;;15.07;64.92
18201;BME280;9226;47.858;9.594;2023-05-24T08:28:27;95392.31;;;15.36;65.70
18201;BME280;9226;47.858;9.594;2023-05-24T08:30:53;95396.09;;;15.52;64.83
18201;BME280;9226;47.858;9.594;2023-05-24T08:33:19;95399.56;;;15.44;63.37
18201;BME280;9226;47.858;9.594;2023-05-24T08:35:44;95407.13;;;15.49;63.26
18201;BME280;9226;47.858;9.594;2023-05-24T08:38:10;95403.38;;;15.42;62.15
18201;BME280;9226;47.858;9.594;2023-05-24T08:40:35;95399.97;;;15.31;61.64
18201;BME280;9226;47.858;9.594;2023-05-24T08:43:01;95405.78;;;15.27;62.05
18201;BME280;9226;47.858;9.594;2023-05-24T08:45:29;95403.00;;;15.36;62.63
18201;BME280;9226;47.858;9.594;2023-05-24T08:47:56;95405.25;;;15.67;63.08
18201;BME280;9226;47.858;9.594;2023-05-24T08:50:22;95400.00;;;15.84;62.57
18201;BME280;9226;47.858;9.594;2023-05-24T08:52:48;95407.44;;;15.98;62.42
18201;BME280;9226;47.858;9.594;2023-05-24T08:55:14;95407.31;;;16.08;61.89
18201;BME280;9226;47.858;9.594;2023-05-24T08:57:40;95407.94;;;16.28;61.04
18201;BME280;9226;47.858;9.594;2023-05-24T09:00:07;95409.66;;;16.45;60.35
18201;BME280;9226;47.858;9.594;2023-05-24T09:02:36;95413.34;;;16.44;59.89
18201;BME280;9226;47.858;9.594;2023-05-24T09:05:03;95414.06;;;16.63;59.32
18201;BME280;9226;47.858;9.594;2023-05-24T09:07:30;95414.22;;;16.53;58.70
18201;BME280;9226;47.858;9.594;2023-05-24T09:09:57;95410.69;;;16.10;57.03
18201;BME280;9226;47.858;9.594;2023-05-24T09:12:25;95412.31;;;16.37;58.57
18201;BME280;9226;47.858;9.594;2023-05-24T09:14:53;95418.25;;;16.57;58.15
18201;BME280;9226;47.858;9.594;2023-05-24T09:17:19;95410.16;;;16.41;56.19
18201;BME280;9226;47.858;9.594;2023-05-24T09:19:45;95408.34;;;16.41;56.74
18201;BME280;9226;47.858;9.594;2023-05-24T09:22:14;95412.31;;;16.37;57.21
18201;BME280;9226;47.858;9.594;2023-05-24T09:24:46;95420.53;;;16.36;56.96
18201;BME280;9226;47.858;9.594;2023-05-24T09:27:20;95417.69;;;16.37;56.94
18201;BME280;9226;47.858;9.594;2023-05-24T09:29:46;95405.09;;;16.30;56.49
18201;BME280;9226;47.858;9.594;2023-05-24T09:32:20;95413.59;;;16.25;57.11
18201;BME280;9226;47.858;9.594;2023-05-24T09:34:48;95414.75;;;16.22;57.41
18201;BME280;9226;47.858;9.594;2023-05-24T09:37:14;95414.69;;;16.49;58.06
18201;BME280;9226;47.858;9.594;2023-05-24T09:39:42;95412.13;;;16.73;57.63
18201;BME280;9226;47.858;9.594;2023-05-24T09:42:13;95416.13;;;16.77;56.53
18201;BME280;9226;47.858;9.594;2023-05-24T09:44:40;95412.44;;;16.78;55.48
18201;BME280;9226;47.858;9.594;2023-05-24T09:47:06;95410.34;;;16.98;56.86
18201;BME280;9226;47.858;9.594;2023-05-24T09:49:35;95414.91;;;17.14;55.80
18201;BME280;9226;47.858;9.594;2023-05-24T09:52:01;95412.41;;;17.46;55.04
18201;BME280;9226;47.858;9.594;2023-05-24T09:54:27;95405.34;;;17.53;54.71
18201;BME280;9226;47.858;9.594;2023-05-24T09:56:52;95414.91;;;17.56;53.60
18201;BME280;9226;47.858;9.594;2023-05-24T09:59:18;95414.72;;;17.73;53.80
18201;BME280;9226;47.858;9.594;2023-05-24T10:01:44;95423.28;;;17.94;53.99
18201;BME280;9226;47.858;9.594;2023-05-24T10:04:10;95420.91;;;17.66;52.74
18201;BME280;9226;47.858;9.594;2023-05-24T10:06:38;95426.78;;;17.94;53.00
18201;BME280;9226;47.858;9.594;2023-05-24T10:09:07;95424.91;;;17.86;52.55
18201;BME280;9226;47.858;9.594;2023-05-24T10:11:37;95425.28;;;17.75;51.79
18201;BME280;9226;47.858;9.594;2023-05-24T10:14:07;95424.47;;;17.66;52.40
18201;BME280;9226;47.858;9.594;2023-05-24T10:16:33;95428.13;;;17.73;51.79
18201;BME280;9226;47.858;9.594;2023-05-24T10:18:58;95426.97;;;17.68;51.55
18201;BME280;9226;47.858;9.594;2023-05-24T10:21:27;95421.94;;;17.32;50.62
18201;BME280;9226;47.858;9.594;2023-05-24T10:23:56;95431.66;;;17.49;51.84
18201;BME280;9226;47.858;9.594;2023-05-24T10:26:24;95437.03;;;17.41;51.71
18201;BME280;9226;47.858;9.594;2023-05-24T10:28:54;95431.47;;;17.34;52.10
18201;BME280;9226;47.858;9.594;2023-05-24T10:31:28;95429.81;;;17.25;51.30
18201;BME280;9226;47.858;9.594;2023-05-24T10:33:55;95425.78;;;17.38;51.49
18201;BME280;9226;47.858;9.594;2023-05-24T10:36:22;95435.19;;;17.25;52.36
18201;BME280;9226;47.858;9.594;2023-05-24T10:38:50;95427.97;;;17.34;52.26
18201;BME280;9226;47.858;9.594;2023-05-24T10:41:17;95425.09;;;17.11;52.01
18201;BME280;9226;47.858;9.594;2023-05-24T10:43:45;95420.44;;;17.29;52.45
18201;BME280;9226;47.858;9.594;2023-05-24T10:46:13;95427.44;;;17.14;52.39
18201;BME280;9226;47.858;9.594;2023-05-24T10:48:40;95431.47;;;17.26;52.68
18201;BME280;9226;47.858;9.594;2023-05-24T10:51:37;95430.31;;;17.21;51.84
18201;BME280;9226;47.858;9.594;2023-05-24T10:54:14;95435.53;;;17.22;52.93
18201;BME280;9226;47.858;9.594;2023-05-24T10:56:43;95435.97;;;16.93;52.20
18201;BME280;9226;47.858;9.594;2023-05-24T10:59:08;95435.69;;;17.21;52.26
18201;BME280;9226;47.858;9.594;2023-05-24T11:01:35;95427.94;;;17.09;52.25
18201;BME280;9226;47.858;9.594;2023-05-24T11:04:10;95432.84;;;17.30;52.41
18201;BME280;9226;47.858;9.594;2023-05-24T11:06:46;95431.66;;;17.25;51.55
18201;BME280;9226;47.858;9.594;2023-05-24T11:09:15;95436.34;;;17.31;52.42
18201;BME280;9226;47.858;9.594;2023-05-24T11:11:53;95433.16;;;17.19;52.33
18201;BME280;9226;47.858;9.594;2023-05-24T11:14:23;95424.97;;;17.37;52.44
18201;BME280;9226;47.858;9.594;2023-05-24T11:16:48;95421.25;;;17.30;52.41
18201;BME280;9226;47.858;9.594;2023-05-24T11:19:20;95423.28;;;17.61;52.80
18201;BME280;9226;47.858;9.594;2023-05-24T11:21:47;95422.09;;;17.71;51.60
18201;BME280;9226;47.858;9.594;2023-05-24T11:24:15;95426.78;;;17.86;50.10
18201;BME280;9226;47.858;9.594;2023-05-24T11:26:42;95424.94;;;17.53;50.41
18201;BME280;9226;47.858;9.594;2023-05-24T11:29:08;95419.41;;;17.71;51.24
18201;BME280;9226;47.858;9.594;2023-05-24T11:31:33;95421.28;;;17.38;50.48
18201;BME280;9226;47.858;9.594;2023-05-24T11:34:03;95416.41;;;17.75;51.14
18201;BME280;9226;47.858;9.594;2023-05-24T11:36:29;95402.47;;;17.96;51.06
18201;BME280;9226;47.858;9.594;2023-05-24T11:38:54;95400.84;;;18.26;50.42
18201;BME280;9226;47.858;9.594;2023-05-24T11:41:20;95403.06;;;18.62;50.04
18201;BME280;9226;47.858;9.594;2023-05-24T11:43:46;95402.38;;;19.00;48.71
18201;BME280;9226;47.858;9.594;2023-05-24T11:46:12;95395.88;;;19.17;48.09
18201;BME280;9226;47.858;9.594;2023-05-24T11:48:37;95400.56;;;19.61;47.46
18201;BME280;9226;47.858;9.594;2023-05-24T11:51:03;95408.41;;;19.48;46.35
18201;BME280;9226;47.858;9.594;2023-05-24T11:53:30;95398.34;;;20.18;46.74
18201;BME280;9226;47.858;9.594;2023-05-24T11:55:55;95398.81;;;20.21;46.36
18201;BME280;9226;47.858;9.594;2023-05-24T11:58:23;95394.91;;;19.94;45.51
18201;BME280;9226;47.858;9.594;2023-05-24T12:00:51;95397.38;;;19.81;44.85
18201;BME280;9226;47.858;9.594;2023-05-24T12:03:17;95405.94;;;19.61;44.44
18201;BME280;9226;47.858;9.594;2023-05-24T12:05:43;95398.34;;;19.65;45.43
18201;BME280;9226;47.858;9.594;2023-05-24T12:08:10;95391.03;;;19.74;46.04
18201;BME280;9226;47.858;9.594;2023-05-24T12:10:38;95388.56;;;19.87;45.28
18201;BME280;9226;47.858;9.594;2023-05-24T12:13:05;95387.16;;;19.76;46.20
18201;BME280;9226;47.858;9.594;2023-05-24T12:15:34;95383.31;;;19.70;44.57
18201;BME280;9226;47.858;9.594;2023-05-24T12:17:59;95388.19;;;19.90;45.71
18201;BME280;9226;47.858;9.594;2023-05-24T12:20:28;95379.66;;;19.63;46.04
18201;BME280;9226;47.858;9.594;2023-05-24T12:22:54;95387.47;;;19.73;45.63
18201;BME280;9226;47.858;9.594;2023-05-24T12:25:21;95382.28;;;19.71;45.35
18201;BME280;9226;47.858;9.594;2023-05-24T12:27:54;95388.00;;;19.77;45.31
18201;BME280;9226;47.858;9.594;2023-05-24T12:30:26;95386.88;;;19.86;45.25
18201;BME280;9226;47.858;9.594;2023-05-24T12:32:52;95389.41;;;20.02;45.50
18201;BME280;9226;47.858;9.594;2023-05-24T12:35:20;95393.50;;;20.28;45.96
18201;BME280;9226;47.858;9.594;2023-05-24T12:37:46;95383.56;;;20.43;45.30
18201;BME280;9226;47.858;9.594;2023-05-24T12:40:16;95386.22;;;20.58;44.88
18201;BME280;9226;47.858;9.594;2023-05-24T12:42:45;95389.41;;;20.62;45.46
18201;BME280;9226;47.858;9.594;2023-05-24T12:45:16;95383.63;;;20.65;45.01
18201;BME280;9226;47.858;9.594;2023-05-24T12:47:56;95383.53;;;20.58;44.15
18201;BME280;9226;47.858;9.594;2023-05-24T12:50:23;95389.84;;;20.81;44.32
18201;BME280;9226;47.858;9.594;2023-05-24T12:52:50;95383.50;;;20.88;44.75
18201;BME280;9226;47.858;9.594;2023-05-24T12:55:21;95381.88;;;20.57;43.70
18201;BME280;9226;47.858;9.594;2023-05-24T12:57:47;95383.19;;;20.32;43.72
18201;BME280;9226;47.858;9.594;2023-05-24T13:00:18;95390.69;;;20.06;44.25
18201;BME280;9226;47.858;9.594;2023-05-24T13:02:44;95393.59;;;19.90;45.03
18201;BME280;9226;47.858;9.594;2023-05-24T13:05:09;95390.25;;;19.88;45.08
18201;BME280;9226;47.858;9.594;2023-05-24T13:07:36;95389.88;;;19.53;45.36
18201;BME280;9226;47.858;9.594;2023-05-24T13:10:01;95387.19;;;19.68;45.39
18201;BME280;9226;47.858;9.594;2023-05-24T13:12:27;95388.03;;;19.68;45.21
18201;BME280;9226;47.858;9.594;2023-05-24T13:14:53;95377.81;;;19.64;46.15